Time,TemperatureF,DewpointF,PressureIn,WindDirection,WindDirectionDegrees,WindSpeedMPH,WindSpeedGustMPH,Humidity,HourlyPrecipIn,Conditions,Clouds,dailyrainin,SoftwareType,DateUTC
2013-03-18 00:03:00,50.0,45.8,29.98,West,270,0.0,-999.0,85,0.11,,,4.72,,2013-03-18 07:03:00,
2013-03-18 00:08:00,50.7,45.8,29.98,West,270,0.0,-999.0,83,0.11,,,4.72,,2013-03-18 07:08:00,
2013-03-18 00:13:00,51.3,46.6,29.98,West,270,0.0,-999.0,84,0.11,,,4.72,,2013-03-18 07:13:00,
2013-03-18 00:18:00,51.3,46.6,29.98,West,270,0.0,-999.0,84,0.11,,,4.72,,2013-03-18 07:18:00,
2013-03-18 00:23:00,50.9,45.9,29.98,West,270,0.0,-999.0,83,0.11,,,4.72,,2013-03-18 07:23:00,
2013-03-18 00:28:00,50.7,46.1,29.98,West,270,0.0,-999.0,84,0.11,,,4.72,,2013-03-18 07:28:00,
2013-03-18 00:33:00,50.7,46.4,29.98,West,270,0.0,-999.0,85,0.11,,,4.72,,2013-03-18 07:33:00,
2013-03-18 00:38:00,50.9,46.2,29.97,West,270,0.0,-999.0,84,0.11,,,4.72,,2013-03-18 07:38:00,
2013-03-18 00:44:00,51.1,46.4,29.98,West,270,0.0,-999.0,84,0.11,,,4.72,,2013-03-18 07:44:00,
2013-03-18 00:49:00,51.3,46.5,29.97,West,270,0.0,-999.0,83,0.11,,,4.72,,2013-03-18 07:49:00,
2013-03-18 00:54:00,50.9,46.2,29.97,West,270,0.0,-999.0,84,0.11,,,4.72,,2013-03-18 07:54:00,
2013-03-18 00:59:00,51.3,46.5,29.97,West,270,0.0,-999.0,83,0.11,,,4.72,,2013-03-18 07:59:00,
2013-03-18 01:04:00,51.1,46.1,29.98,West,270,0.0,-999.0,83,0.11,,,4.72,,2013-03-18 08:04:00,
2013-03-18 01:09:00,50.7,45.7,29.97,West,270,0.0,-999.0,82,0.11,,,4.72,,2013-03-18 08:09:00,
2013-03-18 01:14:00,51.3,46.9,29.97,West,270,0.0,-999.0,84,0.11,,,4.72,,2013-03-18 08:14:00,
2013-03-18 01:19:00,51.3,45.7,29.98,West,270,0.0,-999.0,81,0.11,,,4.72,,2013-03-18 08:19:00,
2013-03-18 01:24:00,51.3,45.5,29.97,West,270,0.0,-999.0,80,0.11,,,4.72,,2013-03-18 08:24:00,
2013-03-18 01:29:00,51.1,45.6,29.98,West,270,0.0,-999.0,81,0.11,,,4.72,,2013-03-18 08:29:00,
2013-03-18 01:34:00,50.9,45.5,29.97,West,270,0.0,-999.0,81,0.11,,,4.72,,2013-03-18 08:34:00,
2013-03-18 01:39:00,50.5,45.8,29.98,West,270,0.0,-999.0,83,0.11,,,4.72,,2013-03-18 08:39:00,
2013-03-18 01:44:00,50.4,45.8,29.98,West,270,0.0,-999.0,84,0.09,,,4.72,,2013-03-18 08:44:00,
2013-03-18 01:49:00,50.7,46.1,29.98,West,270,0.0,-999.0,84,0.09,,,4.72,,2013-03-18 08:49:00,
2013-03-18 01:55:00,50.9,46.3,29.98,West,270,0.0,-999.0,84,0.09,,,4.72,,2013-03-18 08:55:00,
2013-03-18 02:00:00,50.4,45.8,29.98,West,270,0.0,-999.0,84,0.09,,,4.72,,2013-03-18 09:00:00,
2013-03-18 02:05:00,49.8,45.5,29.97,West,270,0.0,-999.0,85,0.09,,,4.72,,2013-03-18 09:05:00,
2013-03-18 02:10:00,49.8,45.9,29.97,West,270,0.0,-999.0,86,0.09,,,4.72,,2013-03-18 09:10:00,
2013-03-18 02:15:00,50.4,45.8,29.98,West,270,0.0,-999.0,84,0.09,,,4.72,,2013-03-18 09:15:00,
2013-03-18 02:20:00,50.5,45.6,29.97,West,270,0.0,-999.0,83,0.09,,,4.72,,2013-03-18 09:20:00,
2013-03-18 02:25:00,50.4,45.3,29.97,West,270,0.0,-999.0,82,0.09,,,4.72,,2013-03-18 09:25:00,
2013-03-18 02:30:00,50.2,45.4,29.97,West,270,0.0,-999.0,83,0.09,,,4.72,,2013-03-18 09:30:00,
2013-03-18 02:35:00,50.2,45.3,29.97,West,270,0.0,-999.0,83,0.09,,,4.72,,2013-03-18 09:35:00,
2013-03-18 02:40:00,50.2,45.3,29.97,West,270,0.0,-999.0,83,0.09,,,4.72,,2013-03-18 09:40:00,
2013-03-18 02:45:00,50.2,45.3,29.97,West,270,0.0,-999.0,83,0.09,,,4.72,,2013-03-18 09:45:00,
2013-03-18 02:50:00,50.4,45.3,29.96,West,270,0.0,-999.0,82,0.09,,,4.72,,2013-03-18 09:50:00,
2013-03-18 02:55:00,50.2,45.1,29.96,West,270,0.0,-999.0,82,0.09,,,4.72,,2013-03-18 09:55:00,
2013-03-18 03:00:00,50.2,45.1,29.96,West,270,0.0,-999.0,82,0.09,,,4.72,,2013-03-18 10:00:00,
2013-03-18 03:06:00,50.4,45.5,29.96,West,270,0.0,-999.0,83,0.09,,,4.72,,2013-03-18 10:06:00,
2013-03-18 03:11:00,50.5,45.1,29.96,West,270,0.0,-999.0,81,0.09,,,4.72,,2013-03-18 10:11:00,
2013-03-18 03:16:00,50.9,45.3,29.96,West,270,0.0,-999.0,81,0.09,,,4.72,,2013-03-18 10:16:00,
2013-03-18 03:21:00,51.3,46.4,29.96,West,270,0.0,-999.0,83,0.09,,,4.72,,2013-03-18 10:21:00,
2013-03-18 03:26:00,51.4,46.6,29.96,West,270,0.0,-999.0,83,0.09,,,4.72,,2013-03-18 10:26:00,
2013-03-18 03:31:00,51.6,46.6,29.95,West,270,0.0,-999.0,82,0.09,,,4.72,,2013-03-18 10:31:00,
2013-03-18 03:37:00,51.4,46.6,29.95,West,270,0.0,-999.0,83,0.09,,,4.72,,2013-03-18 10:37:00,
2013-03-18 03:42:00,50.7,45.5,29.95,West,270,0.0,-999.0,82,0.09,,,4.72,,2013-03-18 10:42:00,
2013-03-18 03:47:00,49.8,45.6,29.96,West,270,0.0,-999.0,85,0.09,,,4.72,,2013-03-18 10:47:00,
2013-03-18 03:52:00,49.8,45.8,29.95,West,270,0.0,-999.0,85,0.09,,,4.72,,2013-03-18 10:52:00,
2013-03-18 03:57:00,49.6,45.9,29.95,West,270,0.0,-999.0,87,0.09,,,4.72,,2013-03-18 10:57:00,
2013-03-18 04:02:00,49.5,46.1,29.94,West,270,0.0,-999.0,88,0.09,,,4.72,,2013-03-18 11:02:00,
2013-03-18 04:07:00,49.1,46.2,29.94,West,270,0.0,-999.0,89,0.09,,,4.72,,2013-03-18 11:07:00,
2013-03-18 04:12:00,49.1,46.4,29.94,West,270,0.0,-999.0,90,0.09,,,4.72,,2013-03-18 11:12:00,
2013-03-18 04:17:00,49.3,46.6,29.94,West,270,0.0,-999.0,90,0.09,,,4.72,,2013-03-18 11:17:00,
2013-03-18 04:22:00,49.6,46.4,29.94,West,270,0.0,-999.0,88,0.09,,,4.72,,2013-03-18 11:22:00,
2013-03-18 04:27:00,49.6,46.3,29.95,West,270,0.0,-999.0,88,0.09,,,4.72,,2013-03-18 11:27:00,
2013-03-18 04:32:00,49.6,46.4,29.94,West,270,0.0,-999.0,88,0.09,,,4.72,,2013-03-18 11:32:00,
2013-03-18 04:37:00,49.6,46.3,29.95,West,270,0.0,-999.0,88,0.08,,,4.72,,2013-03-18 11:37:00,
2013-03-18 04:42:00,49.5,46.2,29.95,West,270,0.0,-999.0,88,0.08,,,4.72,,2013-03-18 11:42:00,
2013-03-18 04:48:00,49.3,46.1,29.94,West,270,0.0,-999.0,88,0.08,,,4.72,,2013-03-18 11:48:00,
2013-03-18 04:53:00,49.1,46.2,29.94,West,270,0.0,-999.0,89,0.08,,,4.72,,2013-03-18 11:53:00,
2013-03-18 04:58:00,49.3,46.2,29.95,West,270,0.0,-999.0,89,0.08,,,4.72,,2013-03-18 11:58:00,
2013-03-18 05:03:00,49.1,46.1,29.95,West,270,0.0,-999.0,89,0.08,,,4.72,,2013-03-18 12:03:00,
2013-03-18 05:08:00,48.4,45.9,29.95,West,270,0.0,-999.0,91,0.08,,,4.72,,2013-03-18 12:08:00,
2013-03-18 05:13:00,48.7,46.1,29.96,West,270,0.0,-999.0,90,0.08,,,4.72,,2013-03-18 12:13:00,
2013-03-18 05:18:00,48.6,45.8,29.95,West,270,0.0,-999.0,90,0.08,,,4.72,,2013-03-18 12:18:00,
2013-03-18 05:23:00,48.6,45.9,29.95,West,270,0.0,-999.0,90,0.08,,,4.72,,2013-03-18 12:23:00,
2013-03-18 05:28:00,48.7,46.1,29.95,West,270,0.0,-999.0,90,0.08,,,4.72,,2013-03-18 12:28:00,
2013-03-18 05:33:00,49.8,46.7,29.95,West,270,0.0,-999.0,89,0.08,,,4.72,,2013-03-18 12:33:00,
2013-03-18 05:38:00,50.0,46.5,29.96,West,270,0.0,-999.0,87,0.08,,,4.72,,2013-03-18 12:38:00,
2013-03-18 05:43:00,50.5,47.1,29.96,West,270,0.0,-999.0,88,0.08,,,4.72,,2013-03-18 12:43:00,
2013-03-18 05:48:00,50.0,46.1,29.96,West,270,0.0,-999.0,86,0.08,,,4.72,,2013-03-18 12:48:00,
2013-03-18 05:53:00,49.5,46.4,29.95,West,270,0.0,-999.0,89,0.08,,,4.72,,2013-03-18 12:53:00,
2013-03-18 05:59:00,50.0,46.5,29.94,West,270,0.0,-999.0,87,0.08,,,4.72,,2013-03-18 12:59:00,
2013-03-18 06:04:00,50.0,46.4,29.95,West,270,0.0,-999.0,87,0.08,,,4.72,,2013-03-18 13:04:00,
2013-03-18 06:09:00,49.8,46.2,29.95,West,270,0.0,-999.0,87,0.08,,,4.72,,2013-03-18 13:09:00,
2013-03-18 06:14:00,50.4,46.9,29.95,West,270,0.0,-999.0,88,0.08,,,4.72,,2013-03-18 13:14:00,
2013-03-18 06:19:00,50.5,46.7,29.95,West,270,0.0,-999.0,86,0.08,,,4.72,,2013-03-18 13:19:00,
2013-03-18 06:24:00,50.9,46.3,29.96,West,270,0.0,-999.0,84,0.08,,,4.72,,2013-03-18 13:24:00,
2013-03-18 06:29:00,50.2,46.0,29.95,West,270,0.0,-999.0,85,0.08,,,4.72,,2013-03-18 13:29:00,
2013-03-18 06:34:00,49.6,45.7,29.95,West,270,0.0,-999.0,86,0.08,,,4.72,,2013-03-18 13:34:00,
2013-03-18 06:39:00,49.3,45.8,29.95,West,270,0.0,-999.0,87,0.08,,,4.72,,2013-03-18 13:39:00,
2013-03-18 06:44:00,48.9,45.9,29.95,West,270,0.0,-999.0,89,0.08,,,4.72,,2013-03-18 13:44:00,
2013-03-18 06:49:00,48.9,46.1,29.96,West,270,0.0,-999.0,89,0.08,,,4.72,,2013-03-18 13:49:00,
2013-03-18 06:54:00,49.3,46.4,29.95,West,270,0.0,-999.0,89,0.08,,,4.72,,2013-03-18 13:54:00,
2013-03-18 06:59:00,49.3,46.3,29.96,West,270,0.0,-999.0,89,0.08,,,4.72,,2013-03-18 13:59:00,
2013-03-18 07:04:00,50.2,47.5,29.96,West,270,0.0,-999.0,90,0.08,,,4.72,,2013-03-18 14:04:00,
2013-03-18 07:10:00,49.3,46.2,29.96,West,270,0.0,-999.0,89,0.08,,,4.72,,2013-03-18 14:10:00,
2013-03-18 07:15:00,49.1,46.3,29.97,West,270,0.0,-999.0,90,0.08,,,4.72,,2013-03-18 14:15:00,
2013-03-18 07:20:00,50.0,47.4,29.97,West,270,0.0,-999.0,90,0.08,,,4.72,,2013-03-18 14:20:00,
2013-03-18 07:25:00,50.4,46.6,29.98,West,270,0.0,-999.0,87,0.08,,,4.72,,2013-03-18 14:25:00,
2013-03-18 07:30:00,49.6,46.6,29.97,West,270,0.0,-999.0,89,0.08,,,4.72,,2013-03-18 14:30:00,
2013-03-18 07:35:00,49.6,46.4,29.97,West,270,0.0,-999.0,88,0.08,,,4.72,,2013-03-18 14:35:00,
2013-03-18 07:40:00,49.5,46.4,29.98,West,270,0.0,-999.0,89,0.08,,,4.72,,2013-03-18 14:40:00,
2013-03-18 07:45:00,54.0,47.6,29.98,West,270,0.0,-999.0,79,0.08,,,4.72,,2013-03-18 14:45:00,
2013-03-18 07:50:00,55.8,47.8,29.98,West,270,0.0,-999.0,74,0.08,,,4.72,,2013-03-18 14:50:00,
2013-03-18 07:55:00,52.5,47.1,29.99,West,270,0.0,-999.0,81,0.08,,,4.72,,2013-03-18 14:55:00,
2013-03-18 08:00:00,50.5,46.7,29.98,West,270,0.0,-999.0,86,0.08,,,4.72,,2013-03-18 15:00:00,
2013-03-18 08:06:00,50.2,46.9,29.98,West,270,0.0,-999.0,88,0.08,,,4.72,,2013-03-18 15:06:00,
2013-03-18 08:11:00,50.0,46.8,29.98,West,270,0.0,-999.0,88,0.08,,,4.72,,2013-03-18 15:11:00,
2013-03-18 08:16:00,50.4,46.8,29.98,West,270,0.0,-999.0,87,0.08,,,4.72,,2013-03-18 15:16:00,
2013-03-18 08:21:00,50.7,46.9,29.99,West,270,0.0,-999.0,86,0.08,,,4.72,,2013-03-18 15:21:00,
2013-03-18 08:26:00,50.7,46.7,29.99,West,270,0.0,-999.0,86,0.08,,,4.72,,2013-03-18 15:26:00,
2013-03-18 08:31:00,51.4,47.3,29.99,West,270,0.0,-999.0,85,0.08,,,4.72,,2013-03-18 15:31:00,
2013-03-18 08:36:00,51.1,46.9,29.99,West,270,0.0,-999.0,85,0.08,,,4.72,,2013-03-18 15:36:00,
2013-03-18 08:42:00,52.0,47.5,29.99,West,270,0.0,-999.0,84,0.08,,,4.72,,2013-03-18 15:42:00,
2013-03-18 08:47:00,52.7,47.8,29.99,West,270,0.0,-999.0,83,0.08,,,4.72,,2013-03-18 15:47:00,
2013-03-18 08:52:00,53.2,47.6,29.99,West,270,0.0,-999.0,81,0.08,,,4.72,,2013-03-18 15:52:00,
2013-03-18 08:57:00,53.8,47.5,29.99,West,270,0.0,-999.0,79,0.08,,,4.72,,2013-03-18 15:57:00,
2013-03-18 09:02:00,53.2,47.5,29.99,West,270,0.0,-999.0,81,0.08,,,4.72,,2013-03-18 16:02:00,
2013-03-18 09:07:00,54.5,47.9,29.99,West,270,0.0,-999.0,78,0.08,,,4.72,,2013-03-18 16:07:00,
2013-03-18 09:12:00,54.3,47.7,29.99,West,270,0.0,-999.0,78,0.08,,,4.72,,2013-03-18 16:12:00,
2013-03-18 09:17:00,53.8,47.3,29.99,West,270,0.0,-999.0,78,0.08,,,4.72,,2013-03-18 16:17:00,
2013-03-18 09:22:00,53.8,47.5,29.99,West,270,0.0,-999.0,79,0.08,,,4.72,,2013-03-18 16:22:00,
2013-03-18 09:27:00,54.0,48.5,29.99,West,270,0.0,-999.0,81,0.08,,,4.72,,2013-03-18 16:27:00,
2013-03-18 09:33:00,55.2,48.3,30.00,West,270,0.0,-999.0,77,0.09,,,4.73,,2013-03-18 16:33:00,
2013-03-18 09:38:00,55.2,47.8,30.00,West,270,0.0,-999.0,76,0.09,,,4.73,,2013-03-18 16:38:00,
2013-03-18 09:43:00,55.0,47.6,30.00,West,270,0.0,-999.0,76,0.10,,,4.74,,2013-03-18 16:43:00,
2013-03-18 09:48:00,54.7,47.7,30.00,West,270,0.0,-999.0,77,0.09,,,4.74,,2013-03-18 16:48:00,
2013-03-18 09:53:00,54.7,48.0,30.00,West,270,0.0,-999.0,78,0.09,,,4.74,,2013-03-18 16:53:00,
2013-03-18 09:58:00,55.0,48.3,30.01,West,270,0.0,-999.0,78,0.09,,,4.74,,2013-03-18 16:58:00,
2013-03-18 10:03:00,55.0,47.6,30.00,West,270,0.0,-999.0,76,0.09,,,4.74,,2013-03-18 17:03:00,
2013-03-18 10:08:00,57.0,48.8,30.00,West,270,0.0,-999.0,73,0.09,,,4.74,,2013-03-18 17:08:00,
2013-03-18 10:13:00,56.7,48.3,30.00,West,270,0.0,-999.0,73,0.09,,,4.74,,2013-03-18 17:13:00,
2013-03-18 10:18:00,58.6,49.6,30.00,West,270,0.0,-999.0,72,0.09,,,4.74,,2013-03-18 17:18:00,
2013-03-18 10:23:00,59.5,49.0,30.00,West,270,0.0,-999.0,68,0.09,,,4.74,,2013-03-18 17:23:00,
2013-03-18 10:28:00,59.0,49.9,30.00,West,270,0.0,-999.0,71,0.09,,,4.74,,2013-03-18 17:28:00,
2013-03-18 10:33:00,58.3,48.6,30.00,West,270,0.0,-999.0,70,0.09,,,4.74,,2013-03-18 17:33:00,
2013-03-18 10:38:00,57.7,48.6,30.00,West,270,0.0,-999.0,71,0.09,,,4.74,,2013-03-18 17:38:00,
2013-03-18 10:43:00,57.9,48.4,30.00,West,270,0.0,-999.0,70,0.09,,,4.74,,2013-03-18 17:43:00,
2013-03-18 10:48:00,57.9,48.2,30.01,West,270,0.0,-999.0,70,0.09,,,4.74,,2013-03-18 17:48:00,
2013-03-18 10:53:00,58.3,48.4,30.01,West,270,0.0,-999.0,69,0.09,,,4.74,,2013-03-18 17:53:00,
2013-03-18 10:59:00,58.6,48.9,30.01,West,270,0.0,-999.0,70,0.09,,,4.74,,2013-03-18 17:59:00,
2013-03-18 11:04:00,60.4,49.5,30.00,West,270,0.0,-999.0,67,0.09,,,4.74,,2013-03-18 18:04:00,
2013-03-18 11:09:00,61.5,49.5,30.01,West,270,0.0,-999.0,64,0.09,,,4.74,,2013-03-18 18:09:00,
2013-03-18 11:14:00,61.9,49.2,30.00,West,270,0.0,-999.0,63,0.09,,,4.74,,2013-03-18 18:14:00,
2013-03-18 11:19:00,61.9,49.6,30.01,West,270,0.0,-999.0,64,0.09,,,4.74,,2013-03-18 18:19:00,
2013-03-18 11:24:00,62.2,49.0,30.01,West,270,0.0,-999.0,61,0.09,,,4.74,,2013-03-18 18:24:00,
2013-03-18 11:29:00,62.2,48.9,30.01,West,270,0.0,-999.0,61,0.09,,,4.74,,2013-03-18 18:29:00,
2013-03-18 11:34:00,61.9,49.5,30.01,West,270,0.0,-999.0,63,0.09,,,4.74,,2013-03-18 18:34:00,
2013-03-18 11:39:00,62.2,48.9,30.01,West,270,0.0,-999.0,61,0.09,,,4.74,,2013-03-18 18:39:00,
2013-03-18 11:44:00,62.2,48.5,30.01,West,270,0.0,-999.0,60,0.09,,,4.74,,2013-03-18 18:44:00,
2013-03-18 11:49:00,63.0,48.1,30.00,West,270,0.0,-999.0,58,0.09,,,4.74,,2013-03-18 18:49:00,
2013-03-18 11:54:00,63.9,48.5,30.01,West,270,0.0,-999.0,57,0.09,,,4.74,,2013-03-18 18:54:00,
2013-03-18 11:59:00,63.9,48.1,30.00,West,270,0.0,-999.0,56,0.09,,,4.74,,2013-03-18 18:59:00,
2013-03-18 12:04:00,63.7,49.2,30.00,West,270,0.0,-999.0,59,0.09,,,4.74,,2013-03-18 19:04:00,
2013-03-18 12:09:00,64.0,48.4,30.00,West,270,0.0,-999.0,56,0.09,,,4.74,,2013-03-18 19:09:00,
2013-03-18 12:14:00,63.9,48.1,30.00,West,270,0.0,-999.0,56,0.09,,,4.74,,2013-03-18 19:14:00,
2013-03-18 12:19:00,63.7,48.2,29.99,West,270,0.0,-999.0,57,0.09,,,4.74,,2013-03-18 19:19:00,
2013-03-18 12:24:00,63.7,47.7,29.99,West,270,0.0,-999.0,56,0.09,,,4.74,,2013-03-18 19:24:00,
2013-03-18 12:29:00,63.9,47.1,29.99,West,270,0.0,-999.0,54,0.09,,,4.74,,2013-03-18 19:29:00,
2013-03-18 12:34:00,65.5,48.4,29.99,West,270,0.0,-999.0,54,0.09,,,4.74,,2013-03-18 19:34:00,
2013-03-18 12:39:00,64.6,47.4,29.99,West,270,0.0,-999.0,53,0.09,,,4.74,,2013-03-18 19:39:00,
2013-03-18 12:44:00,64.8,47.4,29.98,West,270,0.0,-999.0,53,0.09,,,4.74,,2013-03-18 19:44:00,
2013-03-18 12:49:00,67.1,47.7,29.98,West,270,0.0,-999.0,49,0.09,,,4.74,,2013-03-18 19:49:00,
2013-03-18 12:54:00,68.5,47.9,29.98,West,270,0.0,-999.0,47,0.09,,,4.74,,2013-03-18 19:54:00,
2013-03-18 13:00:00,68.7,47.6,29.98,West,270,0.0,-999.0,46,0.09,,,4.74,,2013-03-18 20:00:00,
2013-03-18 13:05:00,67.8,47.6,29.98,West,270,0.0,-999.0,48,0.09,,,4.74,,2013-03-18 20:05:00,
2013-03-18 13:10:00,66.0,46.9,29.97,West,270,0.0,-999.0,50,0.09,,,4.74,,2013-03-18 20:10:00,
2013-03-18 13:15:00,66.7,46.0,29.98,West,270,0.0,-999.0,47,0.09,,,4.74,,2013-03-18 20:15:00,
2013-03-18 13:20:00,65.5,46.0,29.98,West,270,0.0,-999.0,49,0.09,,,4.74,,2013-03-18 20:20:00,
2013-03-18 13:25:00,66.0,46.4,29.97,West,270,0.0,-999.0,49,0.08,,,4.74,,2013-03-18 20:25:00,
2013-03-18 13:30:00,66.4,47.6,29.97,West,270,0.0,-999.0,50,0.08,,,4.74,,2013-03-18 20:30:00,
2013-03-18 13:35:00,67.6,48.1,29.96,West,270,0.0,-999.0,49,0.07,,,4.74,,2013-03-18 20:35:00,
2013-03-18 13:40:00,67.1,48.0,29.96,West,270,0.0,-999.0,50,0.07,,,4.74,,2013-03-18 20:40:00,
2013-03-18 13:45:00,66.9,47.9,29.96,West,270,0.0,-999.0,50,0.05,,,4.74,,2013-03-18 20:45:00,
2013-03-18 13:50:00,65.5,46.0,29.97,West,270,0.0,-999.0,49,0.05,,,4.74,,2013-03-18 20:50:00,
2013-03-18 13:55:00,64.9,46.4,29.96,West,270,0.0,-999.0,51,0.05,,,4.74,,2013-03-18 20:55:00,
2013-03-18 14:00:00,65.7,47.2,29.96,West,270,0.0,-999.0,51,0.05,,,4.74,,2013-03-18 21:00:00,
2013-03-18 14:05:00,66.0,46.2,29.96,West,270,0.0,-999.0,48,0.05,,,4.74,,2013-03-18 21:05:00,
2013-03-18 14:10:00,66.2,47.0,29.96,West,270,0.0,-999.0,50,0.05,,,4.74,,2013-03-18 21:10:00,
2013-03-18 14:16:00,65.5,46.4,29.97,West,270,0.0,-999.0,50,0.05,,,4.74,,2013-03-18 21:16:00,
2013-03-18 14:21:00,65.1,46.5,29.96,West,270,0.0,-999.0,51,0.05,,,4.74,,2013-03-18 21:21:00,
2013-03-18 14:26:00,64.9,46.6,29.96,West,270,0.0,-999.0,51,0.05,,,4.74,,2013-03-18 21:26:00,
2013-03-18 14:31:00,64.9,45.7,29.96,West,270,0.0,-999.0,49,0.05,,,4.74,,2013-03-18 21:31:00,
2013-03-18 14:36:00,64.2,46.9,29.95,West,270,0.0,-999.0,53,0.05,,,4.74,,2013-03-18 21:36:00,
2013-03-18 14:41:00,64.2,46.4,29.94,West,270,0.0,-999.0,52,0.05,,,4.74,,2013-03-18 21:41:00,
2013-03-18 14:46:00,64.2,46.7,29.94,West,270,0.0,-999.0,52,0.05,,,4.74,,2013-03-18 21:46:00,
2013-03-18 14:52:00,64.2,45.9,29.94,West,270,0.0,-999.0,51,0.05,,,4.74,,2013-03-18 21:52:00,
2013-03-18 14:57:00,63.9,45.2,29.95,West,270,0.0,-999.0,50,0.05,,,4.74,,2013-03-18 21:57:00,
2013-03-18 15:02:00,61.7,45.9,29.95,West,270,0.0,-999.0,56,0.05,,,4.74,,2013-03-18 22:02:00,
2013-03-18 15:07:00,62.6,46.7,29.95,West,270,0.0,-999.0,56,0.05,,,4.74,,2013-03-18 22:07:00,
2013-03-18 15:12:00,63.5,47.4,29.94,West,270,0.0,-999.0,55,0.05,,,4.74,,2013-03-18 22:12:00,
2013-03-18 15:17:00,63.3,47.2,29.94,West,270,0.0,-999.0,55,0.05,,,4.74,,2013-03-18 22:17:00,
2013-03-18 15:22:00,63.3,46.1,29.94,West,270,0.0,-999.0,53,0.05,,,4.74,,2013-03-18 22:22:00,
2013-03-18 15:27:00,63.9,47.4,29.94,West,270,0.0,-999.0,55,0.05,,,4.74,,2013-03-18 22:27:00,
2013-03-18 15:32:00,63.9,47.1,29.94,West,270,0.0,-999.0,54,0.05,,,4.74,,2013-03-18 22:32:00,
2013-03-18 15:37:00,64.6,46.9,29.94,West,270,0.0,-999.0,52,0.05,,,4.74,,2013-03-18 22:37:00,
2013-03-18 15:42:00,64.2,45.9,29.93,West,270,0.0,-999.0,51,0.05,,,4.74,,2013-03-18 22:42:00,
2013-03-18 15:47:00,64.0,46.0,29.94,West,270,0.0,-999.0,51,0.05,,,4.74,,2013-03-18 22:47:00,
2013-03-18 15:52:00,64.8,46.9,29.94,West,270,0.0,-999.0,52,0.05,,,4.74,,2013-03-18 22:52:00,
2013-03-18 15:57:00,64.9,46.8,29.94,West,270,0.0,-999.0,51,0.05,,,4.74,,2013-03-18 22:57:00,
2013-03-18 16:02:00,64.6,46.1,29.94,West,270,0.0,-999.0,51,0.05,,,4.74,,2013-03-18 23:02:00,
2013-03-18 16:07:00,65.3,47.3,29.94,West,270,0.0,-999.0,52,0.05,,,4.74,,2013-03-18 23:07:00,
2013-03-18 16:13:00,64.9,46.4,29.94,West,270,0.0,-999.0,51,0.05,,,4.74,,2013-03-18 23:13:00,
2013-03-18 16:18:00,64.9,46.7,29.94,West,270,0.0,-999.0,51,0.05,,,4.74,,2013-03-18 23:18:00,
2013-03-18 16:23:00,64.6,46.3,29.94,West,270,0.0,-999.0,51,0.05,,,4.74,,2013-03-18 23:23:00,
2013-03-18 16:28:00,64.2,47.4,29.94,West,270,0.0,-999.0,54,0.05,,,4.74,,2013-03-18 23:28:00,
2013-03-18 16:33:00,63.5,46.9,29.94,West,270,0.0,-999.0,54,0.05,,,4.74,,2013-03-18 23:33:00,
2013-03-18 16:38:00,62.8,47.3,29.94,West,270,0.0,-999.0,56,0.05,,,4.74,,2013-03-18 23:38:00,
2013-03-18 16:43:00,62.6,46.8,29.93,West,270,0.0,-999.0,56,0.05,,,4.74,,2013-03-18 23:43:00,
2013-03-18 16:48:00,62.4,46.8,29.93,West,270,0.0,-999.0,56,0.05,,,4.74,,2013-03-18 23:48:00,
2013-03-18 16:53:00,62.6,46.0,29.93,West,270,0.0,-999.0,54,0.05,,,4.74,,2013-03-18 23:53:00,
2013-03-18 16:58:00,62.8,46.9,29.93,West,270,0.0,-999.0,56,0.05,,,4.74,,2013-03-18 23:58:00,
2013-03-18 17:03:00,62.8,46.3,29.93,West,270,0.0,-999.0,54,0.05,,,4.74,,2013-03-19 00:03:00,
2013-03-18 17:08:00,62.8,46.8,29.93,West,270,0.0,-999.0,56,0.05,,,4.74,,2013-03-19 00:08:00,
2013-03-18 17:13:00,62.8,46.5,29.93,West,270,0.0,-999.0,55,0.05,,,4.74,,2013-03-19 00:13:00,
2013-03-18 17:19:00,62.2,46.7,29.94,West,270,0.0,-999.0,56,0.05,,,4.74,,2013-03-19 00:19:00,
2013-03-18 17:24:00,62.1,46.9,29.93,West,270,0.0,-999.0,57,0.05,,,4.74,,2013-03-19 00:24:00,
2013-03-18 17:29:00,62.6,47.0,29.93,West,270,0.0,-999.0,56,0.05,,,4.74,,2013-03-19 00:29:00,
2013-03-18 17:34:00,62.4,46.5,29.93,West,270,0.0,-999.0,55,0.05,,,4.74,,2013-03-19 00:34:00,
2013-03-18 17:39:00,61.9,46.6,29.94,West,270,0.0,-999.0,57,0.05,,,4.74,,2013-03-19 00:39:00,
2013-03-18 17:44:00,61.7,46.4,29.94,West,270,0.0,-999.0,57,0.05,,,4.74,,2013-03-19 00:44:00,
2013-03-18 17:49:00,61.3,46.3,29.94,West,270,0.0,-999.0,57,0.05,,,4.74,,2013-03-19 00:49:00,
2013-03-18 17:54:00,61.5,46.0,29.94,West,270,0.0,-999.0,56,0.05,,,4.74,,2013-03-19 00:54:00,
2013-03-18 17:59:00,61.7,45.0,29.95,West,270,0.0,-999.0,54,0.05,,,4.74,,2013-03-19 00:59:00,
2013-03-18 18:04:00,59.0,44.1,29.94,West,270,0.0,-999.0,57,0.05,,,4.74,,2013-03-19 01:04:00,
2013-03-18 18:09:00,59.7,45.2,29.95,West,270,0.0,-999.0,58,0.05,,,4.74,,2013-03-19 01:09:00,
2013-03-18 18:14:00,60.4,45.6,29.94,West,270,0.0,-999.0,58,0.05,,,4.74,,2013-03-19 01:14:00,
2013-03-18 18:19:00,60.3,46.1,29.94,West,270,0.0,-999.0,59,0.05,,,4.74,,2013-03-19 01:19:00,
2013-03-18 18:24:00,59.9,46.3,29.94,West,270,0.0,-999.0,60,0.05,,,4.74,,2013-03-19 01:24:00,
2013-03-18 18:30:00,59.5,45.9,29.95,West,270,0.0,-999.0,60,0.05,,,4.74,,2013-03-19 01:30:00,
2013-03-18 18:35:00,59.2,46.9,29.94,West,270,0.0,-999.0,63,0.05,,,4.74,,2013-03-19 01:35:00,
2013-03-18 18:40:00,58.6,46.0,29.94,West,270,0.0,-999.0,62,0.05,,,4.74,,2013-03-19 01:40:00,
2013-03-18 18:45:00,58.3,45.5,29.95,West,270,0.0,-999.0,62,0.07,,,4.75,,2013-03-19 01:45:00,
2013-03-18 18:50:00,58.6,46.1,29.95,West,270,0.0,-999.0,63,0.05,,,4.75,,2013-03-19 01:50:00,
2013-03-18 18:55:00,58.5,45.7,29.95,West,270,0.0,-999.0,62,0.05,,,4.75,,2013-03-19 01:55:00,
2013-03-18 19:00:00,58.6,46.5,29.95,West,270,0.0,-999.0,64,0.05,,,4.75,,2013-03-19 02:00:00,
2013-03-18 19:05:00,55.4,46.5,29.97,West,270,0.0,-999.0,72,0.05,,,4.75,,2013-03-19 02:05:00,
2013-03-18 19:10:00,56.1,47.9,29.96,West,270,0.0,-999.0,73,0.04,,,4.75,,2013-03-19 02:10:00,
2013-03-18 19:15:00,55.4,47.7,29.97,West,270,0.0,-999.0,75,0.04,,,4.75,,2013-03-19 02:15:00,
2013-03-18 19:20:00,55.2,47.8,29.97,West,270,0.0,-999.0,76,0.04,,,4.75,,2013-03-19 02:20:00,
2013-03-18 19:25:00,55.8,48.1,29.97,West,270,0.0,-999.0,75,0.04,,,4.75,,2013-03-19 02:25:00,
2013-03-18 19:30:00,56.5,48.6,29.96,West,270,0.0,-999.0,74,0.04,,,4.75,,2013-03-19 02:30:00,
2013-03-18 19:35:00,56.3,48.5,29.96,West,270,0.0,-999.0,75,0.04,,,4.75,,2013-03-19 02:35:00,
2013-03-18 19:40:00,56.7,49.1,29.97,West,270,0.0,-999.0,75,0.04,,,4.75,,2013-03-19 02:40:00,
2013-03-18 19:46:00,56.8,49.0,29.97,West,270,0.0,-999.0,75,0.04,,,4.75,,2013-03-19 02:46:00,
2013-03-18 19:51:00,56.7,48.9,29.98,West,270,0.0,-999.0,75,0.04,,,4.75,,2013-03-19 02:51:00,
2013-03-18 19:56:00,56.5,48.7,29.99,West,270,0.0,-999.0,75,0.04,,,4.75,,2013-03-19 02:56:00,
2013-03-18 20:01:00,56.3,48.8,29.98,West,270,0.0,-999.0,76,0.04,,,4.75,,2013-03-19 03:01:00,
2013-03-18 20:06:00,56.1,48.7,29.98,West,270,0.0,-999.0,76,0.04,,,4.75,,2013-03-19 03:06:00,
2013-03-18 20:11:00,55.9,49.3,29.99,West,270,0.0,-999.0,78,0.04,,,4.75,,2013-03-19 03:11:00,
2013-03-18 20:17:00,54.9,48.7,29.99,West,270,0.0,-999.0,79,0.05,,,4.76,,2013-03-19 03:17:00,
2013-03-18 20:22:00,54.7,48.8,29.98,West,270,0.0,-999.0,80,0.05,,,4.76,,2013-03-19 03:22:00,
2013-03-18 20:27:00,54.3,48.7,29.98,West,270,0.0,-999.0,81,0.05,,,4.76,,2013-03-19 03:27:00,
2013-03-18 20:32:00,54.5,49.0,29.99,West,270,0.0,-999.0,81,0.05,,,4.76,,2013-03-19 03:32:00,
2013-03-18 20:37:00,53.8,48.5,29.99,West,270,0.0,-999.0,82,0.05,,,4.76,,2013-03-19 03:37:00,
2013-03-18 20:42:00,53.8,48.6,29.99,West,270,0.0,-999.0,82,0.05,,,4.76,,2013-03-19 03:42:00,
2013-03-18 20:47:00,54.0,48.5,29.99,West,270,0.0,-999.0,81,0.05,,,4.76,,2013-03-19 03:47:00,
2013-03-18 20:52:00,52.9,48.0,29.99,West,270,0.0,-999.0,83,0.05,,,4.76,,2013-03-19 03:52:00,
2013-03-18 20:57:00,52.9,48.3,29.99,West,270,0.0,-999.0,84,0.05,,,4.76,,2013-03-19 03:57:00,
2013-03-18 21:00:00,52.3,48.1,29.99,West,270,0.0,-999.0,85,0.05,,,4.76,,2013-03-19 04:00:00,
2013-03-18 21:01:00,52.5,48.4,30.00,West,270,0.0,-999.0,85,0.05,,,4.76,,2013-03-19 04:01:00,
2013-03-18 21:06:00,53.6,48.4,29.99,West,270,0.0,-999.0,82,0.05,,,4.76,,2013-03-19 04:06:00,
2013-03-18 21:11:00,53.8,48.4,30.00,West,270,0.0,-999.0,81,0.05,,,4.76,,2013-03-19 04:11:00,
2013-03-18 21:16:00,54.1,48.8,30.00,West,270,0.0,-999.0,82,0.05,,,4.76,,2013-03-19 04:16:00,
2013-03-18 21:21:00,53.6,48.4,30.00,West,270,0.0,-999.0,82,0.05,,,4.76,,2013-03-19 04:21:00,
2013-03-18 21:27:00,54.3,48.8,29.99,West,270,0.0,-999.0,81,0.05,,,4.76,,2013-03-19 04:27:00,
2013-03-18 21:32:00,53.8,48.6,30.00,West,270,0.0,-999.0,82,0.05,,,4.76,,2013-03-19 04:32:00,
2013-03-18 21:37:00,54.3,49.6,29.99,West,270,0.0,-999.0,84,0.05,,,4.76,,2013-03-19 04:37:00,
2013-03-18 21:42:00,53.8,48.9,29.99,West,270,0.0,-999.0,83,0.05,,,4.76,,2013-03-19 04:42:00,
2013-03-18 21:47:00,54.1,48.8,29.99,West,270,0.0,-999.0,82,0.05,,,4.76,,2013-03-19 04:47:00,
2013-03-18 21:52:00,54.0,48.5,29.99,West,270,0.0,-999.0,81,0.05,,,4.76,,2013-03-19 04:52:00,
2013-03-18 21:57:00,53.6,48.0,30.00,West,270,0.0,-999.0,81,0.05,,,4.76,,2013-03-19 04:57:00,
2013-03-18 22:02:00,53.2,47.5,30.00,West,270,0.0,-999.0,80,0.05,,,4.76,,2013-03-19 05:02:00,
2013-03-18 22:07:00,53.1,47.3,30.00,West,270,0.0,-999.0,80,0.05,,,4.76,,2013-03-19 05:07:00,
2013-03-18 22:12:00,54.1,49.1,30.00,West,270,0.0,-999.0,83,0.05,,,4.76,,2013-03-19 05:12:00,
2013-03-18 22:17:00,53.8,48.0,30.00,West,270,0.0,-999.0,80,0.05,,,4.76,,2013-03-19 05:17:00,
2013-03-18 22:22:00,54.0,48.9,30.00,West,270,0.0,-999.0,82,0.05,,,4.76,,2013-03-19 05:22:00,
2013-03-18 22:27:00,54.5,48.6,30.00,West,270,0.0,-999.0,80,0.05,,,4.76,,2013-03-19 05:27:00,
2013-03-18 22:32:00,54.7,48.7,30.01,West,270,0.0,-999.0,80,0.05,,,4.76,,2013-03-19 05:32:00,
2013-03-18 22:37:00,55.0,48.8,30.01,West,270,0.0,-999.0,79,0.05,,,4.76,,2013-03-19 05:37:00,
2013-03-18 22:42:00,54.7,48.4,30.02,West,270,0.0,-999.0,79,0.05,,,4.76,,2013-03-19 05:42:00,
2013-03-18 22:48:00,54.3,48.6,30.03,West,270,0.0,-999.0,81,0.05,,,4.76,,2013-03-19 05:48:00,
2013-03-18 22:53:00,54.7,48.3,30.02,West,270,0.0,-999.0,79,0.07,,,4.77,,2013-03-19 05:53:00,
2013-03-18 22:58:00,55.2,49.1,30.01,West,270,0.0,-999.0,79,0.07,,,4.77,,2013-03-19 05:58:00,
2013-03-18 23:03:00,54.3,48.7,30.02,West,270,0.0,-999.0,81,0.05,,,4.77,,2013-03-19 06:03:00,
2013-03-18 23:08:00,53.6,48.6,30.01,West,270,0.0,-999.0,83,0.05,,,4.77,,2013-03-19 06:08:00,
2013-03-18 23:13:00,53.2,48.4,30.00,West,270,0.0,-999.0,83,0.05,,,4.77,,2013-03-19 06:13:00,
2013-03-18 23:18:00,52.9,49.2,30.00,West,270,0.0,-999.0,87,0.05,,,4.77,,2013-03-19 06:18:00,
2013-03-18 23:23:00,53.1,48.4,29.99,West,270,0.0,-999.0,84,0.05,,,4.77,,2013-03-19 06:23:00,
2013-03-18 23:28:00,53.2,48.1,30.00,West,270,0.0,-999.0,82,0.05,,,4.77,,2013-03-19 06:28:00,
2013-03-18 23:33:00,53.2,47.5,29.99,West,270,0.0,-999.0,80,0.05,,,4.77,,2013-03-19 06:33:00,
2013-03-18 23:38:00,52.9,47.7,29.99,West,270,0.0,-999.0,82,0.05,,,4.77,,2013-03-19 06:38:00,
2013-03-18 23:43:00,52.5,47.5,29.99,West,270,0.0,-999.0,83,0.05,,,4.77,,2013-03-19 06:43:00,
2013-03-18 23:48:00,52.0,47.5,29.99,West,270,0.0,-999.0,84,0.05,,,4.77,,2013-03-19 06:48:00,
2013-03-18 23:53:00,52.3,47.4,29.99,West,270,0.0,-999.0,83,0.05,,,4.77,,2013-03-19 06:53:00,
2013-03-18 23:58:00,51.6,47.5,29.99,West,270,0.0,-999.0,85,0.05,,,4.77,,2013-03-19 06:58:00,